首页
METAR-TAF:

METAR-TAF

机场 :

St. Clair County International Airport

Port Huron, 密歇根州, 美国

纬度: 42-55N, 经度: 082-32W, 海拔: 198米

当前天气观测

该预报发布于18分钟前的11:55 UTC
风速9节,风向西,有时为16节阵风
温度 -6°C
湿度 62%
气压 1009 hPa
能見度: 16.1公里
阴天层高于3600英尺

METAR: KPHN 271155Z AUTO 28009G16KT 10SM OVC036 M06/M12 A2980 RMK AO2

时间: 07:13 (12:13 UTC)


TAF: 丢失

超过4000个机场的气象观测和天气预报(METAR&TAF报告)。

可查询的气象台以黄色和红色小点在地图上表示。

将鼠标移到小点上方,可查看气象台名称。

然后点击查看天气观测和预报。

如需切换地图:点击带黑十字的绿色按钮放大地图;点击带横线的绿色按钮缩小地图;或者点击绿色箭头查看邻近地区的地图。


METAR-TAF: